sensor_id;sensor_type;location;lat;lon;timestamp;pressure;altitude;pressure_sealevel;temperature;humidity
13695;BME280;6919;52.344;14.518;2023-02-04T00:00:37;101004.47;;;3.51;100.00
13695;BME280;6919;52.344;14.518;2023-02-04T00:03:07;101025.72;;;3.37;100.00
13695;BME280;6919;52.344;14.518;2023-02-04T00:05:37;101036.78;;;3.44;100.00
13695;BME280;6919;52.344;14.518;2023-02-04T00:08:06;101059.97;;;3.40;100.00
13695;BME280;6919;52.344;14.518;2023-02-04T00:10:35;101072.97;;;3.31;100.00
13695;BME280;6919;52.344;14.518;2023-02-04T00:13:05;101082.22;;;3.38;100.00
13695;BME280;6919;52.344;14.518;2023-02-04T00:15:34;101102.03;;;3.32;100.00
13695;BME280;6919;52.344;14.518;2023-02-04T00:18:03;101111.22;;;3.27;100.00
13695;BME280;6919;52.344;14.518;2023-02-04T00:20:32;101117.16;;;3.16;100.00
13695;BME280;6919;52.344;14.518;2023-02-04T00:23:02;101130.41;;;3.16;100.00
13695;BME280;6919;52.344;14.518;2023-02-04T00:25:31;101138.75;;;3.10;100.00
13695;BME280;6919;52.344;14.518;2023-02-04T00:27:59;101151.50;;;3.03;100.00
13695;BME280;6919;52.344;14.518;2023-02-04T00:30:28;101162.09;;;3.03;100.00
13695;BME280;6919;52.344;14.518;2023-02-04T00:32:57;101174.78;;;2.98;100.00
13695;BME280;6919;52.344;14.518;2023-02-04T00:35:25;101190.75;;;2.97;100.00
13695;BME280;6919;52.344;14.518;2023-02-04T00:37:54;101190.56;;;2.86;100.00
13695;BME280;6919;52.344;14.518;2023-02-04T00:40:24;101207.00;;;2.91;100.00
13695;BME280;6919;52.344;14.518;2023-02-04T00:42:53;101218.38;;;2.93;100.00
13695;BME280;6919;52.344;14.518;2023-02-04T00:45:21;101228.97;;;2.93;100.00
13695;BME280;6919;52.344;14.518;2023-02-04T00:47:50;101244.88;;;2.93;100.00
13695;BME280;6919;52.344;14.518;2023-02-04T00:50:18;101245.03;;;2.90;100.00
13695;BME280;6919;52.344;14.518;2023-02-04T00:52:47;101264.34;;;2.92;100.00
13695;BME280;6919;52.344;14.518;2023-02-04T00:55:15;101265.69;;;2.99;100.00
13695;BME280;6919;52.344;14.518;2023-02-04T00:57:45;101280.03;;;2.95;100.00
13695;BME280;6919;52.344;14.518;2023-02-04T01:00:15;101292.03;;;2.86;100.00
13695;BME280;6919;52.344;14.518;2023-02-04T01:02:44;101299.03;;;2.87;100.00
13695;BME280;6919;52.344;14.518;2023-02-04T01:05:13;101308.16;;;2.97;100.00
13695;BME280;6919;52.344;14.518;2023-02-04T01:07:42;101320.06;;;2.90;100.00
13695;BME280;6919;52.344;14.518;2023-02-04T01:10:10;101331.06;;;2.98;100.00
13695;BME280;6919;52.344;14.518;2023-02-04T01:12:39;101334.66;;;2.97;100.00
13695;BME280;6919;52.344;14.518;2023-02-04T01:15:09;101366.00;;;2.89;100.00
13695;BME280;6919;52.344;14.518;2023-02-04T01:17:38;101363.50;;;3.02;100.00
13695;BME280;6919;52.344;14.518;2023-02-04T01:20:08;101374.91;;;2.88;100.00
13695;BME280;6919;52.344;14.518;2023-02-04T01:22:37;101377.47;;;2.90;100.00
13695;BME280;6919;52.344;14.518;2023-02-04T01:25:06;101403.09;;;2.89;100.00
13695;BME280;6919;52.344;14.518;2023-02-04T01:27:35;101415.13;;;2.95;100.00
13695;BME280;6919;52.344;14.518;2023-02-04T01:30:05;101414.47;;;2.91;100.00
13695;BME280;6919;52.344;14.518;2023-02-04T01:32:35;101427.88;;;2.88;100.00
13695;BME280;6919;52.344;14.518;2023-02-04T01:35:04;101435.91;;;2.87;100.00
13695;BME280;6919;52.344;14.518;2023-02-04T01:37:32;101449.75;;;2.76;100.00
13695;BME280;6919;52.344;14.518;2023-02-04T01:40:01;101465.81;;;2.73;100.00
13695;BME280;6919;52.344;14.518;2023-02-04T01:42:31;101490.47;;;2.74;100.00
13695;BME280;6919;52.344;14.518;2023-02-04T01:45:00;101491.66;;;2.53;100.00
13695;BME280;6919;52.344;14.518;2023-02-04T01:47:28;101504.50;;;2.43;100.00
13695;BME280;6919;52.344;14.518;2023-02-04T01:49:58;101514.59;;;2.52;100.00
13695;BME280;6919;52.344;14.518;2023-02-04T01:52:28;101522.34;;;2.40;100.00
13695;BME280;6919;52.344;14.518;2023-02-04T01:54:58;101530.81;;;2.46;100.00
13695;BME280;6919;52.344;14.518;2023-02-04T01:57:27;101523.81;;;2.45;100.00
13695;BME280;6919;52.344;14.518;2023-02-04T01:59:56;101544.81;;;2.48;100.00
13695;BME280;6919;52.344;14.518;2023-02-04T02:02:42;101557.41;;;2.43;100.00
13695;BME280;6919;52.344;14.518;2023-02-04T02:05:15;101570.72;;;2.42;100.00
13695;BME280;6919;52.344;14.518;2023-02-04T02:07:45;101581.00;;;2.48;100.00
13695;BME280;6919;52.344;14.518;2023-02-04T02:10:14;101581.09;;;2.46;100.00
13695;BME280;6919;52.344;14.518;2023-02-04T02:12:43;101590.34;;;2.55;100.00
13695;BME280;6919;52.344;14.518;2023-02-04T02:15:13;101596.28;;;2.43;100.00
13695;BME280;6919;52.344;14.518;2023-02-04T02:17:43;101603.13;;;2.30;100.00
13695;BME280;6919;52.344;14.518;2023-02-04T02:20:15;101623.34;;;2.31;100.00
13695;BME280;6919;52.344;14.518;2023-02-04T02:22:51;101632.31;;;2.28;100.00
13695;BME280;6919;52.344;14.518;2023-02-04T02:25:24;101650.50;;;2.17;100.00
13695;BME280;6919;52.344;14.518;2023-02-04T02:27:53;101651.59;;;2.13;100.00
13695;BME280;6919;52.344;14.518;2023-02-04T02:30:22;101658.69;;;1.94;100.00
13695;BME280;6919;52.344;14.518;2023-02-04T02:32:52;101658.69;;;1.94;100.00
13695;BME280;6919;52.344;14.518;2023-02-04T02:35:20;101654.88;;;1.83;100.00
13695;BME280;6919;52.344;14.518;2023-02-04T02:37:49;101676.78;;;1.85;100.00
13695;BME280;6919;52.344;14.518;2023-02-04T02:40:18;101695.91;;;1.73;100.00
13695;BME280;6919;52.344;14.518;2023-02-04T02:42:50;101707.63;;;1.67;100.00
13695;BME280;6919;52.344;14.518;2023-02-04T02:45:23;101710.19;;;1.69;100.00
13695;BME280;6919;52.344;14.518;2023-02-04T02:47:53;101712.31;;;1.61;100.00
13695;BME280;6919;52.344;14.518;2023-02-04T02:50:25;101722.13;;;1.59;100.00
13695;BME280;6919;52.344;14.518;2023-02-04T02:52:55;101727.53;;;1.56;100.00
13695;BME280;6919;52.344;14.518;2023-02-04T02:55:26;101739.75;;;1.58;100.00
13695;BME280;6919;52.344;14.518;2023-02-04T02:57:56;101738.31;;;1.51;100.00
13695;BME280;6919;52.344;14.518;2023-02-04T03:00:27;101747.50;;;1.43;100.00
13695;BME280;6919;52.344;14.518;2023-02-04T03:02:58;101763.66;;;1.37;100.00
13695;BME280;6919;52.344;14.518;2023-02-04T03:05:31;101770.72;;;1.36;100.00
13695;BME280;6919;52.344;14.518;2023-02-04T03:08:01;101776.25;;;1.30;100.00
13695;BME280;6919;52.344;14.518;2023-02-04T03:10:30;101778.69;;;1.35;100.00
13695;BME280;6919;52.344;14.518;2023-02-04T03:13:00;101797.53;;;1.27;100.00
13695;BME280;6919;52.344;14.518;2023-02-04T03:15:30;101796.00;;;1.22;100.00
13695;BME280;6919;52.344;14.518;2023-02-04T03:17:59;101807.84;;;1.13;100.00
13695;BME280;6919;52.344;14.518;2023-02-04T03:20:30;101812.72;;;1.22;100.00
13695;BME280;6919;52.344;14.518;2023-02-04T03:22:59;101822.41;;;1.22;100.00
13695;BME280;6919;52.344;14.518;2023-02-04T03:25:28;101835.38;;;1.28;100.00
13695;BME280;6919;52.344;14.518;2023-02-04T03:27:57;101842.91;;;1.17;100.00
13695;BME280;6919;52.344;14.518;2023-02-04T03:30:28;101842.09;;;1.15;100.00
13695;BME280;6919;52.344;14.518;2023-02-04T03:32:57;101859.81;;;1.13;100.00
13695;BME280;6919;52.344;14.518;2023-02-04T03:35:26;101871.03;;;1.18;100.00
13695;BME280;6919;52.344;14.518;2023-02-04T03:37:54;101871.03;;;1.18;100.00
13695;BME280;6919;52.344;14.518;2023-02-04T03:40:23;101884.22;;;1.18;100.00
13695;BME280;6919;52.344;14.518;2023-02-04T03:42:51;101900.47;;;1.09;100.00
13695;BME280;6919;52.344;14.518;2023-02-04T03:45:20;101896.19;;;1.06;100.00
13695;BME280;6919;52.344;14.518;2023-02-04T03:47:50;101910.22;;;1.07;100.00
13695;BME280;6919;52.344;14.518;2023-02-04T03:50:18;101921.22;;;1.18;100.00
13695;BME280;6919;52.344;14.518;2023-02-04T03:52:47;101923.84;;;1.18;100.00
13695;BME280;6919;52.344;14.518;2023-02-04T03:55:17;101931.59;;;1.22;100.00
13695;BME280;6919;52.344;14.518;2023-02-04T03:57:46;101933.59;;;1.17;100.00
13695;BME280;6919;52.344;14.518;2023-02-04T04:00:15;101932.53;;;1.21;100.00
13695;BME280;6919;52.344;14.518;2023-02-04T04:02:43;101939.75;;;1.16;100.00
13695;BME280;6919;52.344;14.518;2023-02-04T04:05:14;101944.31;;;1.13;100.00
13695;BME280;6919;52.344;14.518;2023-02-04T04:07:42;101944.44;;;1.10;100.00
13695;BME280;6919;52.344;14.518;2023-02-04T04:10:11;101961.94;;;1.12;100.00
13695;BME280;6919;52.344;14.518;2023-02-04T04:12:40;101964.09;;;1.03;100.00
13695;BME280;6919;52.344;14.518;2023-02-04T04:15:09;101965.03;;;1.02;100.00
13695;BME280;6919;52.344;14.518;2023-02-04T04:17:37;101972.03;;;1.03;100.00
13695;BME280;6919;52.344;14.518;2023-02-04T04:20:06;101978.41;;;0.97;100.00
13695;BME280;6919;52.344;14.518;2023-02-04T04:22:36;101995.72;;;1.04;100.00
13695;BME280;6919;52.344;14.518;2023-02-04T04:25:06;101996.59;;;1.05;100.00
13695;BME280;6919;52.344;14.518;2023-02-04T04:27:34;101993.50;;;0.94;100.00
13695;BME280;6919;52.344;14.518;2023-02-04T04:30:03;102014.16;;;1.06;100.00
13695;BME280;6919;52.344;14.518;2023-02-04T04:32:32;102019.44;;;1.06;100.00
13695;BME280;6919;52.344;14.518;2023-02-04T04:35:00;102031.66;;;1.08;100.00
13695;BME280;6919;52.344;14.518;2023-02-04T04:37:29;102053.44;;;0.92;100.00
13695;BME280;6919;52.344;14.518;2023-02-04T04:39:59;102056.66;;;1.00;100.00
13695;BME280;6919;52.344;14.518;2023-02-04T04:42:29;102055.44;;;1.08;100.00
13695;BME280;6919;52.344;14.518;2023-02-04T04:44:57;102058.44;;;0.99;100.00
13695;BME280;6919;52.344;14.518;2023-02-04T04:47:26;102060.78;;;1.07;100.00
13695;BME280;6919;52.344;14.518;2023-02-04T04:49:54;102067.09;;;1.03;100.00
13695;BME280;6919;52.344;14.518;2023-02-04T04:52:23;102076.16;;;1.19;100.00
13695;BME280;6919;52.344;14.518;2023-02-04T04:54:51;102078.53;;;1.03;100.00
13695;BME280;6919;52.344;14.518;2023-02-04T04:57:21;102084.59;;;1.05;100.00
13695;BME280;6919;52.344;14.518;2023-02-04T04:59:49;102088.72;;;1.12;100.00
13695;BME280;6919;52.344;14.518;2023-02-04T05:02:18;102090.47;;;1.13;100.00
13695;BME280;6919;52.344;14.518;2023-02-04T05:04:46;102096.22;;;1.24;100.00
13695;BME280;6919;52.344;14.518;2023-02-04T05:07:15;102107.63;;;1.25;100.00
13695;BME280;6919;52.344;14.518;2023-02-04T05:09:44;102110.91;;;1.31;100.00
13695;BME280;6919;52.344;14.518;2023-02-04T05:12:12;102106.34;;;1.35;100.00
13695;BME280;6919;52.344;14.518;2023-02-04T05:14:42;102126.09;;;1.25;100.00
13695;BME280;6919;52.344;14.518;2023-02-04T05:17:10;102129.91;;;1.18;100.00
13695;BME280;6919;52.344;14.518;2023-02-04T05:19:39;102134.84;;;1.27;100.00
13695;BME280;6919;52.344;14.518;2023-02-04T05:22:07;102144.50;;;1.28;100.00
13695;BME280;6919;52.344;14.518;2023-02-04T05:24:36;102150.53;;;1.31;100.00
13695;BME280;6919;52.344;14.518;2023-02-04T05:27:04;102153.53;;;1.45;100.00
13695;BME280;6919;52.344;14.518;2023-02-04T05:29:33;102163.16;;;1.46;100.00
13695;BME280;6919;52.344;14.518;2023-02-04T05:32:03;102170.38;;;1.41;100.00
13695;BME280;6919;52.344;14.518;2023-02-04T05:34:32;102181.34;;;1.54;100.00
13695;BME280;6919;52.344;14.518;2023-02-04T05:37:00;102173.41;;;1.54;100.00
13695;BME280;6919;52.344;14.518;2023-02-04T05:39:29;102184.25;;;1.48;100.00
13695;BME280;6919;52.344;14.518;2023-02-04T05:41:57;102192.06;;;1.51;100.00
13695;BME280;6919;52.344;14.518;2023-02-04T05:44:26;102192.56;;;1.60;100.00
13695;BME280;6919;52.344;14.518;2023-02-04T05:46:54;102206.56;;;1.62;100.00
13695;BME280;6919;52.344;14.518;2023-02-04T05:49:24;102201.53;;;1.56;100.00
13695;BME280;6919;52.344;14.518;2023-02-04T05:51:52;102207.00;;;1.52;100.00
13695;BME280;6919;52.344;14.518;2023-02-04T05:54:21;102204.53;;;1.70;100.00
13695;BME280;6919;52.344;14.518;2023-02-04T05:56:49;102214.34;;;1.67;100.00
13695;BME280;6919;52.344;14.518;2023-02-04T05:59:18;102218.28;;;1.55;100.00
13695;BME280;6919;52.344;14.518;2023-02-04T06:01:48;102222.44;;;1.62;100.00
13695;BME280;6919;52.344;14.518;2023-02-04T06:04:17;102237.41;;;1.63;100.00
13695;BME280;6919;52.344;14.518;2023-02-04T06:06:47;102232.38;;;1.56;100.00
13695;BME280;6919;52.344;14.518;2023-02-04T06:09:16;102244.56;;;1.60;100.00
13695;BME280;6919;52.344;14.518;2023-02-04T06:11:44;102242.09;;;1.55;100.00
13695;BME280;6919;52.344;14.518;2023-02-04T06:14:13;102256.19;;;1.56;100.00
13695;BME280;6919;52.344;14.518;2023-02-04T06:16:41;102257.22;;;1.52;100.00
13695;BME280;6919;52.344;14.518;2023-02-04T06:19:10;102266.69;;;1.57;100.00
13695;BME280;6919;52.344;14.518;2023-02-04T06:21:39;102266.84;;;1.53;100.00
13695;BME280;6919;52.344;14.518;2023-02-04T06:24:09;102267.91;;;1.49;100.00
13695;BME280;6919;52.344;14.518;2023-02-04T06:26:38;102272.72;;;1.61;100.00
13695;BME280;6919;52.344;14.518;2023-02-04T06:29:06;102281.94;;;1.51;100.00
13695;BME280;6919;52.344;14.518;2023-02-04T06:31:35;102288.31;;;1.45;100.00
13695;BME280;6919;52.344;14.518;2023-02-04T06:34:05;102294.72;;;1.38;100.00
13695;BME280;6919;52.344;14.518;2023-02-04T06:36:34;102297.19;;;1.43;100.00
13695;BME280;6919;52.344;14.518;2023-02-04T06:39:03;102303.34;;;1.43;100.00
13695;BME280;6919;52.344;14.518;2023-02-04T06:41:32;102309.38;;;1.47;100.00
13695;BME280;6919;52.344;14.518;2023-02-04T06:44:01;102307.94;;;1.38;100.00
13695;BME280;6919;52.344;14.518;2023-02-04T06:46:29;102320.50;;;1.32;100.00
13695;BME280;6919;52.344;14.518;2023-02-04T06:48:58;102330.75;;;1.41;100.00
13695;BME280;6919;52.344;14.518;2023-02-04T06:51:27;102335.66;;;1.27;100.00
13695;BME280;6919;52.344;14.518;2023-02-04T06:53:56;102334.09;;;1.21;100.00
13695;BME280;6919;52.344;14.518;2023-02-04T06:56:25;102332.41;;;1.19;100.00
13695;BME280;6919;52.344;14.518;2023-02-04T06:58:57;102332.41;;;1.19;100.00
13695;BME280;6919;52.344;14.518;2023-02-04T07:01:27;102344.59;;;1.23;100.00
13695;BME280;6919;52.344;14.518;2023-02-04T07:03:56;102352.84;;;1.14;100.00
13695;BME280;6919;52.344;14.518;2023-02-04T07:06:24;102351.16;;;1.11;100.00
13695;BME280;6919;52.344;14.518;2023-02-04T07:08:53;102352.22;;;1.06;100.00
13695;BME280;6919;52.344;14.518;2023-02-04T07:11:21;102360.72;;;1.15;100.00
13695;BME280;6919;52.344;14.518;2023-02-04T07:13:50;102360.84;;;1.11;100.00
13695;BME280;6919;52.344;14.518;2023-02-04T07:16:20;102357.91;;;1.20;100.00
13695;BME280;6919;52.344;14.518;2023-02-04T07:18:48;102366.69;;;1.20;100.00
13695;BME280;6919;52.344;14.518;2023-02-04T07:21:17;102374.56;;;1.22;100.00
13695;BME280;6919;52.344;14.518;2023-02-04T07:23:45;102370.16;;;1.22;100.00
13695;BME280;6919;52.344;14.518;2023-02-04T07:26:14;102382.00;;;1.37;100.00
13695;BME280;6919;52.344;14.518;2023-02-04T07:28:42;102381.25;;;1.32;100.00
13695;BME280;6919;52.344;14.518;2023-02-04T07:31:11;102385.56;;;1.34;100.00
13695;BME280;6919;52.344;14.518;2023-02-04T07:33:41;102382.09;;;1.34;100.00
13695;BME280;6919;52.344;14.518;2023-02-04T07:36:10;102385.72;;;1.31;100.00
13695;BME280;6919;52.344;14.518;2023-02-04T07:38:41;102383.66;;;1.39;100.00
13695;BME280;6919;52.344;14.518;2023-02-04T07:41:10;102383.75;;;1.36;100.00
13695;BME280;6919;52.344;14.518;2023-02-04T07:43:38;102381.66;;;1.46;100.00
13695;BME280;6919;52.344;14.518;2023-02-04T07:46:07;102378.81;;;1.52;100.00
13695;BME280;6919;52.344;14.518;2023-02-04T07:48:36;102387.69;;;1.74;100.00
13695;BME280;6919;52.344;14.518;2023-02-04T07:51:06;102389.41;;;1.75;100.00
13695;BME280;6919;52.344;14.518;2023-02-04T07:53:34;102392.06;;;1.75;100.00
13695;BME280;6919;52.344;14.518;2023-02-04T07:56:03;102397.78;;;1.63;100.00
13695;BME280;6919;52.344;14.518;2023-02-04T07:58:32;102401.94;;;1.70;100.00
13695;BME280;6919;52.344;14.518;2023-02-04T08:01:00;102408.53;;;1.83;100.00
13695;BME280;6919;52.344;14.518;2023-02-04T08:03:29;102412.59;;;1.93;100.00
13695;BME280;6919;52.344;14.518;2023-02-04T08:05:59;102417.63;;;1.99;100.00
13695;BME280;6919;52.344;14.518;2023-02-04T08:08:29;102418.41;;;2.02;100.00
13695;BME280;6919;52.344;14.518;2023-02-04T08:10:57;102428.63;;;2.11;100.00
13695;BME280;6919;52.344;14.518;2023-02-04T08:13:26;102430.44;;;2.11;100.00
13695;BME280;6919;52.344;14.518;2023-02-04T08:15:55;102440.28;;;2.30;100.00
13695;BME280;6919;52.344;14.518;2023-02-04T08:18:23;102447.66;;;2.21;100.00
13695;BME280;6919;52.344;14.518;2023-02-04T08:20:52;102444.59;;;2.33;100.00
13695;BME280;6919;52.344;14.518;2023-02-04T08:23:21;102449.81;;;2.57;100.00
13695;BME280;6919;52.344;14.518;2023-02-04T08:25:51;102461.00;;;2.65;100.00
13695;BME280;6919;52.344;14.518;2023-02-04T08:28:19;102468.06;;;2.86;100.00
13695;BME280;6919;52.344;14.518;2023-02-04T08:30:48;102459.72;;;2.97;100.00
13695;BME280;6919;52.344;14.518;2023-02-04T08:33:16;102469.16;;;3.04;100.00
13695;BME280;6919;52.344;14.518;2023-02-04T08:35:45;102477.22;;;3.01;100.00
13695;BME280;6919;52.344;14.518;2023-02-04T08:38:13;102481.28;;;3.09;100.00
13695;BME280;6919;52.344;14.518;2023-02-04T08:40:42;102480.69;;;3.03;100.00
13695;BME280;6919;52.344;14.518;2023-02-04T08:43:12;102478.56;;;2.89;100.00
13695;BME280;6919;52.344;14.518;2023-02-04T08:45:40;102489.91;;;2.93;100.00
13695;BME280;6919;52.344;14.518;2023-02-04T08:48:09;102494.16;;;2.97;100.00
13695;BME280;6919;52.344;14.518;2023-02-04T08:50:37;102497.31;;;3.06;100.00
13695;BME280;6919;52.344;14.518;2023-02-04T08:53:06;102508.16;;;3.22;100.00
13695;BME280;6919;52.344;14.518;2023-02-04T08:55:34;102510.88;;;3.42;100.00
13695;BME280;6919;52.344;14.518;2023-02-04T08:58:03;102512.91;;;3.14;100.00
13695;BME280;6919;52.344;14.518;2023-02-04T09:00:33;102520.50;;;3.23;100.00
13695;BME280;6919;52.344;14.518;2023-02-04T09:03:02;102514.41;;;3.21;100.00
13695;BME280;6919;52.344;14.518;2023-02-04T09:05:30;102513.84;;;3.13;100.00
13695;BME280;6919;52.344;14.518;2023-02-04T09:07:59;102516.66;;;3.30;100.00
13695;BME280;6919;52.344;14.518;2023-02-04T09:10:28;102520.38;;;3.26;100.00
13695;BME280;6919;52.344;14.518;2023-02-04T09:12:56;102521.00;;;3.11;100.00
13695;BME280;6919;52.344;14.518;2023-02-04T09:15:25;102529.28;;;3.02;100.00
13695;BME280;6919;52.344;14.518;2023-02-04T09:17:55;102522.09;;;3.05;100.00
13695;BME280;6919;52.344;14.518;2023-02-04T09:20:30;102522.72;;;3.12;100.00
13695;BME280;6919;52.344;14.518;2023-02-04T09:23:02;102529.88;;;3.32;100.00
13695;BME280;6919;52.344;14.518;2023-02-04T09:25:30;102531.47;;;3.36;100.00
13695;BME280;6919;52.344;14.518;2023-02-04T09:27:59;102541.47;;;3.51;100.00
13695;BME280;6919;52.344;14.518;2023-02-04T09:30:27;102541.47;;;3.51;100.00
13695;BME280;6919;52.344;14.518;2023-02-04T09:32:58;102551.34;;;3.69;100.00
13695;BME280;6919;52.344;14.518;2023-02-04T09:35:26;102555.41;;;3.56;100.00
13695;BME280;6919;52.344;14.518;2023-02-04T09:37:55;102560.69;;;3.34;100.00
13695;BME280;6919;52.344;14.518;2023-02-04T09:40:27;102563.22;;;3.37;100.00
13695;BME280;6919;52.344;14.518;2023-02-04T09:42:58;102573.28;;;3.29;100.00
13695;BME280;6919;52.344;14.518;2023-02-04T09:45:28;102568.31;;;3.20;100.00
13695;BME280;6919;52.344;14.518;2023-02-04T09:48:00;102569.06;;;3.24;100.00
13695;BME280;6919;52.344;14.518;2023-02-04T09:50:30;102573.94;;;3.34;100.00
13695;BME280;6919;52.344;14.518;2023-02-04T09:53:02;102578.09;;;3.20;100.00
13695;BME280;6919;52.344;14.518;2023-02-04T09:55:33;102567.97;;;3.29;100.00
13695;BME280;6919;52.344;14.518;2023-02-04T09:58:04;102573.16;;;3.32;100.00
13695;BME280;6919;52.344;14.518;2023-02-04T10:00:34;102578.47;;;3.32;100.00
13695;BME280;6919;52.344;14.518;2023-02-04T10:03:13;102584.75;;;3.30;100.00
13695;BME280;6919;52.344;14.518;2023-02-04T10:05:42;102583.50;;;2.93;100.00
13695;BME280;6919;52.344;14.518;2023-02-04T10:08:14;102585.00;;;3.24;100.00
13695;BME280;6919;52.344;14.518;2023-02-04T10:10:43;102588.06;;;3.35;100.00
13695;BME280;6919;52.344;14.518;2023-02-04T10:13:17;102590.00;;;3.31;100.00
13695;BME280;6919;52.344;14.518;2023-02-04T10:15:47;102604.03;;;3.33;100.00
13695;BME280;6919;52.344;14.518;2023-02-04T10:18:21;102605.06;;;3.52;100.00
13695;BME280;6919;52.344;14.518;2023-02-04T10:20:53;102600.56;;;3.54;100.00
13695;BME280;6919;52.344;14.518;2023-02-04T10:23:22;102607.22;;;3.64;100.00
13695;BME280;6919;52.344;14.518;2023-02-04T10:25:51;102610.50;;;3.49;100.00
13695;BME280;6919;52.344;14.518;2023-02-04T10:28:20;102612.25;;;3.49;100.00
13695;BME280;6919;52.344;14.518;2023-02-04T10:30:48;102616.72;;;3.70;100.00
13695;BME280;6919;52.344;14.518;2023-02-04T10:33:23;102614.31;;;3.85;100.00
13695;BME280;6919;52.344;14.518;2023-02-04T10:35:53;102628.75;;;3.78;100.00
13695;BME280;6919;52.344;14.518;2023-02-04T10:38:23;102620.03;;;3.96;100.00
13695;BME280;6919;52.344;14.518;2023-02-04T10:41:00;102623.06;;;3.66;100.00
13695;BME280;6919;52.344;14.518;2023-02-04T10:43:29;102629.09;;;3.69;100.00
13695;BME280;6919;52.344;14.518;2023-02-04T10:46:00;102631.69;;;3.71;100.00
13695;BME280;6919;52.344;14.518;2023-02-04T10:48:39;102631.03;;;3.66;100.00
13695;BME280;6919;52.344;14.518;2023-02-04T10:51:11;102632.38;;;3.54;100.00
13695;BME280;6919;52.344;14.518;2023-02-04T10:53:40;102643.59;;;3.61;100.00
13695;BME280;6919;52.344;14.518;2023-02-04T10:56:41;102644.47;;;3.61;100.00
13695;BME280;6919;52.344;14.518;2023-02-04T10:59:19;102645.03;;;3.48;100.00
13695;BME280;6919;52.344;14.518;2023-02-04T11:01:48;102648.63;;;3.68;100.00
13695;BME280;6919;52.344;14.518;2023-02-04T11:04:18;102639.44;;;3.77;100.00
13695;BME280;6919;52.344;14.518;2023-02-04T11:06:47;102650.84;;;3.79;100.00
13695;BME280;6919;52.344;14.518;2023-02-04T11:09:15;102642.13;;;3.75;100.00
13695;BME280;6919;52.344;14.518;2023-02-04T11:11:48;102644.34;;;3.64;100.00
13695;BME280;6919;52.344;14.518;2023-02-04T11:14:23;102646.88;;;3.89;100.00
13695;BME280;6919;52.344;14.518;2023-02-04T11:16:52;102646.69;;;3.93;100.00
13695;BME280;6919;52.344;14.518;2023-02-04T11:19:34;102648.78;;;4.07;100.00
13695;BME280;6919;52.344;14.518;2023-02-04T11:22:20;102642.88;;;4.00;100.00
13695;BME280;6919;52.344;14.518;2023-02-04T11:24:50;102647.06;;;4.06;100.00
13695;BME280;6919;52.344;14.518;2023-02-04T11:27:21;102649.91;;;3.80;100.00
13695;BME280;6919;52.344;14.518;2023-02-04T11:29:51;102654.84;;;3.89;100.00
13695;BME280;6919;52.344;14.518;2023-02-04T11:32:31;102660.59;;;3.78;100.00
13695;BME280;6919;52.344;14.518;2023-02-04T11:35:25;102665.59;;;3.64;100.00
13695;BME280;6919;52.344;14.518;2023-02-04T11:37:55;102671.38;;;3.52;100.00
13695;BME280;6919;52.344;14.518;2023-02-04T11:40:27;102661.22;;;3.40;100.00
13695;BME280;6919;52.344;14.518;2023-02-04T11:43:07;102670.28;;;3.58;100.00
13695;BME280;6919;52.344;14.518;2023-02-04T11:45:37;102679.91;;;3.60;100.00
13695;BME280;6919;52.344;14.518;2023-02-04T11:48:12;102675.25;;;3.65;100.00
13695;BME280;6919;52.344;14.518;2023-02-04T11:50:54;102662.78;;;3.23;100.00
13695;BME280;6919;52.344;14.518;2023-02-04T11:53:27;102682.03;;;3.28;100.00
13695;BME280;6919;52.344;14.518;2023-02-04T11:55:57;102667.72;;;3.32;100.00
13695;BME280;6919;52.344;14.518;2023-02-04T11:58:25;102671.38;;;3.29;100.00
13695;BME280;6919;52.344;14.518;2023-02-04T12:00:57;102668.81;;;3.26;100.00
13695;BME280;6919;52.344;14.518;2023-02-04T12:03:28;102669.94;;;3.65;100.00
13695;BME280;6919;52.344;14.518;2023-02-04T12:05:58;102672.06;;;4.00;100.00
13695;BME280;6919;52.344;14.518;2023-02-04T12:08:32;102667.22;;;4.31;100.00
13695;BME280;6919;52.344;14.518;2023-02-04T12:11:07;102663.56;;;4.34;100.00
13695;BME280;6919;52.344;14.518;2023-02-04T12:13:47;102657.06;;;4.41;100.00
13695;BME280;6919;52.344;14.518;2023-02-04T12:16:16;102664.50;;;4.33;100.00
13695;BME280;6919;52.344;14.518;2023-02-04T12:18:45;102671.00;;;4.26;100.00
13695;BME280;6919;52.344;14.518;2023-02-04T12:21:15;102673.94;;;3.98;100.00
13695;BME280;6919;52.344;14.518;2023-02-04T12:23:44;102679.31;;;3.97;100.00
13695;BME280;6919;52.344;14.518;2023-02-04T12:26:13;102675.41;;;3.84;100.00
13695;BME280;6919;52.344;14.518;2023-02-04T12:28:42;102673.25;;;3.93;100.00
13695;BME280;6919;52.344;14.518;2023-02-04T12:31:10;102694.88;;;3.61;100.00
13695;BME280;6919;52.344;14.518;2023-02-04T12:33:39;102684.63;;;3.29;100.00
13695;BME280;6919;52.344;14.518;2023-02-04T12:36:08;102699.19;;;3.17;100.00
13695;BME280;6919;52.344;14.518;2023-02-04T12:38:38;102699.81;;;3.26;100.00
13695;BME280;6919;52.344;14.518;2023-02-04T12:41:06;102691.66;;;3.30;100.00
13695;BME280;6919;52.344;14.518;2023-02-04T12:43:35;102696.16;;;3.51;100.00
13695;BME280;6919;52.344;14.518;2023-02-04T12:46:04;102681.06;;;3.53;100.00
13695;BME280;6919;52.344;14.518;2023-02-04T12:48:32;102696.91;;;3.76;100.00
13695;BME280;6919;52.344;14.518;2023-02-04T12:51:01;102682.31;;;3.88;100.00
13695;BME280;6919;52.344;14.518;2023-02-04T12:53:29;102691.66;;;4.19;100.00
13695;BME280;6919;52.344;14.518;2023-02-04T12:55:59;102700.69;;;4.35;99.86
13695;BME280;6919;52.344;14.518;2023-02-04T12:58:27;102704.84;;;4.21;97.65
13695;BME280;6919;52.344;14.518;2023-02-04T13:00:56;102707.38;;;4.24;97.87
13695;BME280;6919;52.344;14.518;2023-02-04T13:03:25;102704.34;;;4.11;98.04